sensor_id;sensor_type;location;lat;lon;timestamp;P1;durP1;ratioP1;P2;durP2;ratioP2
75488;SDS011;64069;46.396;48.102;2024-03-08T00:00:16;17.75;;;6.40;;
75488;SDS011;64069;46.396;48.102;2024-03-08T00:02:45;25.33;;;10.05;;
75488;SDS011;64069;46.396;48.102;2024-03-08T00:05:12;27.77;;;9.57;;
75488;SDS011;64069;46.396;48.102;2024-03-08T00:07:39;34.58;;;11.68;;
75488;SDS011;64069;46.396;48.102;2024-03-08T00:10:07;18.35;;;7.43;;
75488;SDS011;64069;46.396;48.102;2024-03-08T00:12:37;25.55;;;10.43;;
75488;SDS011;64069;46.396;48.102;2024-03-08T00:15:10;23.48;;;9.20;;
75488;SDS011;64069;46.396;48.102;2024-03-08T00:17:42;37.28;;;13.43;;
75488;SDS011;64069;46.396;48.102;2024-03-08T00:20:09;11.65;;;5.03;;
75488;SDS011;64069;46.396;48.102;2024-03-08T00:22:36;25.42;;;9.63;;
75488;SDS011;64069;46.396;48.102;2024-03-08T00:25:05;29.13;;;9.93;;
75488;SDS011;64069;46.396;48.102;2024-03-08T00:27:35;26.47;;;10.70;;
75488;SDS011;64069;46.396;48.102;2024-03-08T00:30:02;22.30;;;8.57;;
75488;SDS011;64069;46.396;48.102;2024-03-08T00:32:28;25.85;;;9.73;;
75488;SDS011;64069;46.396;48.102;2024-03-08T00:34:54;17.33;;;6.35;;
75488;SDS011;64069;46.396;48.102;2024-03-08T00:37:20;16.65;;;7.07;;
75488;SDS011;64069;46.396;48.102;2024-03-08T00:39:50;18.35;;;7.00;;
75488;SDS011;64069;46.396;48.102;2024-03-08T00:42:17;19.90;;;7.45;;
75488;SDS011;64069;46.396;48.102;2024-03-08T00:44:44;17.33;;;6.68;;
75488;SDS011;64069;46.396;48.102;2024-03-08T00:47:10;22.05;;;9.73;;
75488;SDS011;64069;46.396;48.102;2024-03-08T00:49:36;33.72;;;13.10;;
75488;SDS011;64069;46.396;48.102;2024-03-08T00:52:04;23.33;;;9.00;;
75488;SDS011;64069;46.396;48.102;2024-03-08T00:54:33;27.92;;;9.25;;
75488;SDS011;64069;46.396;48.102;2024-03-08T00:56:59;26.13;;;11.27;;
75488;SDS011;64069;46.396;48.102;2024-03-08T00:59:28;30.77;;;13.27;;
75488;SDS011;64069;46.396;48.102;2024-03-08T01:01:58;34.25;;;11.60;;
75488;SDS011;64069;46.396;48.102;2024-03-08T01:04:25;26.33;;;11.02;;
75488;SDS011;64069;46.396;48.102;2024-03-08T01:06:54;23.63;;;8.88;;
75488;SDS011;64069;46.396;48.102;2024-03-08T01:09:24;27.63;;;8.82;;
75488;SDS011;64069;46.396;48.102;2024-03-08T01:11:50;17.75;;;7.18;;
75488;SDS011;64069;46.396;48.102;2024-03-08T01:14:16;26.50;;;8.75;;
75488;SDS011;64069;46.396;48.102;2024-03-08T01:16:42;22.88;;;8.63;;
75488;SDS011;64069;46.396;48.102;2024-03-08T01:19:08;16.08;;;6.05;;
75488;SDS011;64069;46.396;48.102;2024-03-08T01:21:34;18.80;;;7.05;;
75488;SDS011;64069;46.396;48.102;2024-03-08T01:24:00;14.52;;;5.85;;
75488;SDS011;64069;46.396;48.102;2024-03-08T01:26:26;14.32;;;6.03;;
75488;SDS011;64069;46.396;48.102;2024-03-08T01:28:52;35.20;;;10.60;;
75488;SDS011;64069;46.396;48.102;2024-03-08T01:31:18;29.20;;;10.30;;
75488;SDS011;64069;46.396;48.102;2024-03-08T01:33:44;19.38;;;7.60;;
75488;SDS011;64069;46.396;48.102;2024-03-08T01:36:10;23.83;;;9.05;;
75488;SDS011;64069;46.396;48.102;2024-03-08T01:38:41;23.60;;;8.13;;
75488;SDS011;64069;46.396;48.102;2024-03-08T01:41:08;23.20;;;9.32;;
75488;SDS011;64069;46.396;48.102;2024-03-08T01:43:34;27.17;;;8.65;;
75488;SDS011;64069;46.396;48.102;2024-03-08T01:46:00;15.63;;;7.78;;
75488;SDS011;64069;46.396;48.102;2024-03-08T01:48:27;16.02;;;5.85;;
75488;SDS011;64069;46.396;48.102;2024-03-08T01:50:55;24.17;;;9.57;;
75488;SDS011;64069;46.396;48.102;2024-03-08T01:53:23;14.95;;;7.32;;
75488;SDS011;64069;46.396;48.102;2024-03-08T01:55:51;24.10;;;8.60;;
75488;SDS011;64069;46.396;48.102;2024-03-08T01:58:21;14.23;;;7.38;;
75488;SDS011;64069;46.396;48.102;2024-03-08T02:00:48;18.30;;;7.07;;
75488;SDS011;64069;46.396;48.102;2024-03-08T02:03:15;20.38;;;8.05;;
75488;SDS011;64069;46.396;48.102;2024-03-08T02:05:41;16.50;;;6.30;;
75488;SDS011;64069;46.396;48.102;2024-03-08T02:08:08;24.55;;;8.82;;
75488;SDS011;64069;46.396;48.102;2024-03-08T02:10:43;17.40;;;5.88;;
75488;SDS011;64069;46.396;48.102;2024-03-08T02:13:10;19.13;;;6.70;;
75488;SDS011;64069;46.396;48.102;2024-03-08T02:15:50;18.70;;;6.22;;
75488;SDS011;64069;46.396;48.102;2024-03-08T02:18:16;27.02;;;9.60;;
75488;SDS011;64069;46.396;48.102;2024-03-08T02:20:42;14.40;;;6.57;;
75488;SDS011;64069;46.396;48.102;2024-03-08T02:23:09;22.60;;;7.38;;
75488;SDS011;64069;46.396;48.102;2024-03-08T02:25:35;17.73;;;7.28;;
75488;SDS011;64069;46.396;48.102;2024-03-08T02:28:01;15.63;;;5.75;;
75488;SDS011;64069;46.396;48.102;2024-03-08T02:30:27;15.20;;;7.35;;
75488;SDS011;64069;46.396;48.102;2024-03-08T02:32:55;17.25;;;6.05;;
75488;SDS011;64069;46.396;48.102;2024-03-08T02:35:21;20.52;;;8.90;;
75488;SDS011;64069;46.396;48.102;2024-03-08T02:37:47;18.17;;;6.15;;
75488;SDS011;64069;46.396;48.102;2024-03-08T02:40:13;31.65;;;10.20;;
75488;SDS011;64069;46.396;48.102;2024-03-08T02:42:39;19.23;;;7.40;;
75488;SDS011;64069;46.396;48.102;2024-03-08T02:45:05;19.10;;;7.07;;
75488;SDS011;64069;46.396;48.102;2024-03-08T02:47:33;20.60;;;6.43;;
75488;SDS011;64069;46.396;48.102;2024-03-08T02:49:59;25.33;;;10.98;;
75488;SDS011;64069;46.396;48.102;2024-03-08T02:52:27;14.43;;;6.05;;
75488;SDS011;64069;46.396;48.102;2024-03-08T02:54:52;20.35;;;7.43;;
75488;SDS011;64069;46.396;48.102;2024-03-08T02:57:18;21.98;;;8.30;;
75488;SDS011;64069;46.396;48.102;2024-03-08T02:59:44;14.15;;;5.93;;
75488;SDS011;64069;46.396;48.102;2024-03-08T03:02:11;20.55;;;5.13;;
75488;SDS011;64069;46.396;48.102;2024-03-08T03:04:39;19.60;;;6.93;;
75488;SDS011;64069;46.396;48.102;2024-03-08T03:07:06;33.63;;;11.38;;
75488;SDS011;64069;46.396;48.102;2024-03-08T03:09:31;19.13;;;8.43;;
75488;SDS011;64069;46.396;48.102;2024-03-08T03:11:58;17.38;;;6.72;;
75488;SDS011;64069;46.396;48.102;2024-03-08T03:14:24;13.10;;;5.13;;
75488;SDS011;64069;46.396;48.102;2024-03-08T03:16:52;24.75;;;10.55;;
75488;SDS011;64069;46.396;48.102;2024-03-08T03:19:19;26.23;;;9.98;;
75488;SDS011;64069;46.396;48.102;2024-03-08T03:21:46;17.75;;;6.10;;
75488;SDS011;64069;46.396;48.102;2024-03-08T03:24:12;27.70;;;10.20;;
75488;SDS011;64069;46.396;48.102;2024-03-08T03:26:41;18.73;;;6.68;;
75488;SDS011;64069;46.396;48.102;2024-03-08T03:29:09;14.48;;;6.50;;
75488;SDS011;64069;46.396;48.102;2024-03-08T03:31:36;32.63;;;11.57;;
75488;SDS011;64069;46.396;48.102;2024-03-08T03:34:02;31.63;;;11.43;;
75488;SDS011;64069;46.396;48.102;2024-03-08T03:36:29;18.90;;;7.20;;
75488;SDS011;64069;46.396;48.102;2024-03-08T03:38:56;25.05;;;8.10;;
75488;SDS011;64069;46.396;48.102;2024-03-08T03:41:32;24.60;;;9.82;;
75488;SDS011;64069;46.396;48.102;2024-03-08T03:43:59;18.05;;;5.22;;
75488;SDS011;64069;46.396;48.102;2024-03-08T03:46:25;23.50;;;8.15;;
75488;SDS011;64069;46.396;48.102;2024-03-08T03:48:53;22.20;;;7.70;;
75488;SDS011;64069;46.396;48.102;2024-03-08T03:51:20;18.35;;;6.07;;
75488;SDS011;64069;46.396;48.102;2024-03-08T03:53:46;20.88;;;8.48;;
75488;SDS011;64069;46.396;48.102;2024-03-08T03:56:12;14.65;;;5.40;;
75488;SDS011;64069;46.396;48.102;2024-03-08T03:58:38;27.55;;;10.90;;
75488;SDS011;64069;46.396;48.102;2024-03-08T04:01:05;18.52;;;6.65;;
75488;SDS011;64069;46.396;48.102;2024-03-08T04:03:31;26.50;;;9.65;;
75488;SDS011;64069;46.396;48.102;2024-03-08T04:05:57;18.08;;;6.90;;
75488;SDS011;64069;46.396;48.102;2024-03-08T04:08:23;29.23;;;10.00;;
75488;SDS011;64069;46.396;48.102;2024-03-08T04:10:52;26.92;;;11.15;;
75488;SDS011;64069;46.396;48.102;2024-03-08T04:13:18;15.82;;;5.88;;
75488;SDS011;64069;46.396;48.102;2024-03-08T04:15:46;17.33;;;7.57;;
75488;SDS011;64069;46.396;48.102;2024-03-08T04:18:14;21.73;;;5.97;;
75488;SDS011;64069;46.396;48.102;2024-03-08T04:20:40;25.30;;;9.77;;
75488;SDS011;64069;46.396;48.102;2024-03-08T04:23:06;17.73;;;7.32;;
75488;SDS011;64069;46.396;48.102;2024-03-08T04:25:32;25.55;;;9.25;;
75488;SDS011;64069;46.396;48.102;2024-03-08T04:27:58;19.60;;;8.27;;
75488;SDS011;64069;46.396;48.102;2024-03-08T04:30:24;23.65;;;8.00;;
75488;SDS011;64069;46.396;48.102;2024-03-08T04:32:50;14.48;;;7.70;;
75488;SDS011;64069;46.396;48.102;2024-03-08T04:35:16;17.10;;;8.02;;
75488;SDS011;64069;46.396;48.102;2024-03-08T04:37:42;16.95;;;6.38;;
75488;SDS011;64069;46.396;48.102;2024-03-08T04:40:08;26.00;;;10.38;;
75488;SDS011;64069;46.396;48.102;2024-03-08T04:42:34;20.00;;;8.35;;
75488;SDS011;64069;46.396;48.102;2024-03-08T04:45:03;18.25;;;7.47;;
75488;SDS011;64069;46.396;48.102;2024-03-08T04:47:29;14.65;;;4.47;;
75488;SDS011;64069;46.396;48.102;2024-03-08T04:49:56;16.13;;;6.40;;
75488;SDS011;64069;46.396;48.102;2024-03-08T04:52:23;20.17;;;8.95;;
75488;SDS011;64069;46.396;48.102;2024-03-08T04:54:49;18.38;;;6.13;;
75488;SDS011;64069;46.396;48.102;2024-03-08T04:57:15;9.95;;;4.00;;
75488;SDS011;64069;46.396;48.102;2024-03-08T04:59:43;12.05;;;5.30;;
75488;SDS011;64069;46.396;48.102;2024-03-08T05:02:09;14.23;;;5.78;;
75488;SDS011;64069;46.396;48.102;2024-03-08T05:04:36;16.45;;;6.38;;
75488;SDS011;64069;46.396;48.102;2024-03-08T05:07:02;10.10;;;5.00;;
75488;SDS011;64069;46.396;48.102;2024-03-08T05:09:29;12.98;;;4.63;;
75488;SDS011;64069;46.396;48.102;2024-03-08T05:11:57;11.93;;;4.95;;
75488;SDS011;64069;46.396;48.102;2024-03-08T05:14:25;15.43;;;5.30;;
75488;SDS011;64069;46.396;48.102;2024-03-08T05:16:51;14.50;;;6.53;;
75488;SDS011;64069;46.396;48.102;2024-03-08T05:19:17;15.73;;;5.70;;
75488;SDS011;64069;46.396;48.102;2024-03-08T05:21:44;18.08;;;7.25;;
75488;SDS011;64069;46.396;48.102;2024-03-08T05:24:11;13.68;;;5.38;;
75488;SDS011;64069;46.396;48.102;2024-03-08T05:26:38;17.75;;;6.60;;
75488;SDS011;64069;46.396;48.102;2024-03-08T05:29:04;13.82;;;6.05;;
75488;SDS011;64069;46.396;48.102;2024-03-08T05:31:31;14.18;;;5.43;;
75488;SDS011;64069;46.396;48.102;2024-03-08T05:34:11;15.57;;;6.72;;
75488;SDS011;64069;46.396;48.102;2024-03-08T05:36:40;18.27;;;6.72;;
75488;SDS011;64069;46.396;48.102;2024-03-08T05:39:08;17.23;;;7.50;;
75488;SDS011;64069;46.396;48.102;2024-03-08T05:41:37;17.85;;;6.75;;
75488;SDS011;64069;46.396;48.102;2024-03-08T05:44:04;10.80;;;4.72;;
75488;SDS011;64069;46.396;48.102;2024-03-08T05:46:30;13.27;;;4.90;;
75488;SDS011;64069;46.396;48.102;2024-03-08T05:48:57;12.88;;;4.50;;
75488;SDS011;64069;46.396;48.102;2024-03-08T05:51:26;20.80;;;8.13;;
75488;SDS011;64069;46.396;48.102;2024-03-08T05:53:53;13.25;;;6.25;;
75488;SDS011;64069;46.396;48.102;2024-03-08T05:56:21;10.98;;;4.05;;
75488;SDS011;64069;46.396;48.102;2024-03-08T05:58:48;11.15;;;4.70;;
75488;SDS011;64069;46.396;48.102;2024-03-08T06:01:15;11.68;;;4.35;;
75488;SDS011;64069;46.396;48.102;2024-03-08T06:03:41;11.80;;;4.25;;
75488;SDS011;64069;46.396;48.102;2024-03-08T06:06:14;9.05;;;3.80;;
75488;SDS011;64069;46.396;48.102;2024-03-08T06:08:43;19.38;;;7.10;;
75488;SDS011;64069;46.396;48.102;2024-03-08T06:11:09;17.83;;;6.00;;
75488;SDS011;64069;46.396;48.102;2024-03-08T06:13:35;12.75;;;5.72;;
75488;SDS011;64069;46.396;48.102;2024-03-08T06:16:01;10.68;;;3.88;;
75488;SDS011;64069;46.396;48.102;2024-03-08T06:18:30;11.73;;;4.60;;
75488;SDS011;64069;46.396;48.102;2024-03-08T06:20:57;8.85;;;3.63;;
75488;SDS011;64069;46.396;48.102;2024-03-08T06:23:23;14.50;;;5.00;;
75488;SDS011;64069;46.396;48.102;2024-03-08T06:25:49;11.88;;;3.97;;
75488;SDS011;64069;46.396;48.102;2024-03-08T06:28:15;7.97;;;3.60;;
75488;SDS011;64069;46.396;48.102;2024-03-08T06:30:42;13.48;;;4.55;;
75488;SDS011;64069;46.396;48.102;2024-03-08T06:33:08;9.30;;;3.50;;
75488;SDS011;64069;46.396;48.102;2024-03-08T06:35:35;12.10;;;4.53;;
75488;SDS011;64069;46.396;48.102;2024-03-08T06:38:06;10.10;;;4.25;;
75488;SDS011;64069;46.396;48.102;2024-03-08T06:40:32;10.32;;;3.67;;
75488;SDS011;64069;46.396;48.102;2024-03-08T06:42:58;9.20;;;3.35;;
75488;SDS011;64069;46.396;48.102;2024-03-08T06:45:24;7.57;;;3.38;;
75488;SDS011;64069;46.396;48.102;2024-03-08T06:47:51;7.40;;;3.22;;
75488;SDS011;64069;46.396;48.102;2024-03-08T06:50:17;10.50;;;4.22;;
75488;SDS011;64069;46.396;48.102;2024-03-08T06:52:43;7.57;;;3.15;;
75488;SDS011;64069;46.396;48.102;2024-03-08T06:55:10;9.40;;;3.90;;
75488;SDS011;64069;46.396;48.102;2024-03-08T06:57:39;8.75;;;3.05;;
75488;SDS011;64069;46.396;48.102;2024-03-08T07:00:08;6.00;;;2.45;;
75488;SDS011;64069;46.396;48.102;2024-03-08T07:02:36;8.70;;;3.75;;
75488;SDS011;64069;46.396;48.102;2024-03-08T07:05:05;6.75;;;3.28;;
75488;SDS011;64069;46.396;48.102;2024-03-08T07:07:31;10.15;;;3.38;;
75488;SDS011;64069;46.396;48.102;2024-03-08T07:09:59;8.98;;;4.20;;
75488;SDS011;64069;46.396;48.102;2024-03-08T07:12:25;10.95;;;3.67;;
75488;SDS011;64069;46.396;48.102;2024-03-08T07:14:51;8.73;;;4.00;;
75488;SDS011;64069;46.396;48.102;2024-03-08T07:17:17;6.75;;;2.42;;
75488;SDS011;64069;46.396;48.102;2024-03-08T07:19:43;6.07;;;2.83;;
75488;SDS011;64069;46.396;48.102;2024-03-08T07:22:09;6.78;;;2.97;;
75488;SDS011;64069;46.396;48.102;2024-03-08T07:24:35;8.23;;;2.85;;
75488;SDS011;64069;46.396;48.102;2024-03-08T07:27:37;9.13;;;2.65;;
75488;SDS011;64069;46.396;48.102;2024-03-08T07:30:03;8.73;;;3.42;;
75488;SDS011;64069;46.396;48.102;2024-03-08T07:32:29;5.07;;;2.47;;
75488;SDS011;64069;46.396;48.102;2024-03-08T07:34:57;5.65;;;2.35;;
75488;SDS011;64069;46.396;48.102;2024-03-08T07:37:24;9.40;;;3.05;;
75488;SDS011;64069;46.396;48.102;2024-03-08T07:39:50;6.03;;;2.47;;
75488;SDS011;64069;46.396;48.102;2024-03-08T07:42:16;12.38;;;3.10;;
75488;SDS011;64069;46.396;48.102;2024-03-08T07:44:42;5.25;;;1.90;;
75488;SDS011;64069;46.396;48.102;2024-03-08T07:47:08;5.90;;;2.10;;
75488;SDS011;64069;46.396;48.102;2024-03-08T07:49:35;6.47;;;2.55;;
75488;SDS011;64069;46.396;48.102;2024-03-08T07:52:03;6.57;;;3.40;;
75488;SDS011;64069;46.396;48.102;2024-03-08T07:54:30;5.72;;;2.08;;
75488;SDS011;64069;46.396;48.102;2024-03-08T07:56:56;6.30;;;2.50;;
75488;SDS011;64069;46.396;48.102;2024-03-08T07:59:22;9.82;;;3.45;;
75488;SDS011;64069;46.396;48.102;2024-03-08T08:01:48;10.32;;;4.78;;
75488;SDS011;64069;46.396;48.102;2024-03-08T08:04:14;9.18;;;3.78;;
75488;SDS011;64069;46.396;48.102;2024-03-08T08:06:43;11.05;;;4.25;;
75488;SDS011;64069;46.396;48.102;2024-03-08T08:09:09;9.73;;;4.78;;
75488;SDS011;64069;46.396;48.102;2024-03-08T08:11:40;17.50;;;5.70;;
75488;SDS011;64069;46.396;48.102;2024-03-08T08:14:09;10.35;;;4.72;;
75488;SDS011;64069;46.396;48.102;2024-03-08T08:16:36;12.27;;;4.90;;
75488;SDS011;64069;46.396;48.102;2024-03-08T08:19:03;7.60;;;3.20;;
75488;SDS011;64069;46.396;48.102;2024-03-08T08:21:34;7.75;;;3.15;;
75488;SDS011;64069;46.396;48.102;2024-03-08T08:24:02;7.05;;;2.47;;
75488;SDS011;64069;46.396;48.102;2024-03-08T08:26:29;5.93;;;2.17;;
75488;SDS011;64069;46.396;48.102;2024-03-08T08:28:55;7.90;;;3.00;;
75488;SDS011;64069;46.396;48.102;2024-03-08T08:31:22;6.28;;;2.78;;
75488;SDS011;64069;46.396;48.102;2024-03-08T08:33:47;6.57;;;2.13;;
75488;SDS011;64069;46.396;48.102;2024-03-08T08:36:14;6.35;;;2.45;;
75488;SDS011;64069;46.396;48.102;2024-03-08T08:38:40;6.90;;;2.67;;
75488;SDS011;64069;46.396;48.102;2024-03-08T08:41:12;10.60;;;2.75;;
75488;SDS011;64069;46.396;48.102;2024-03-08T08:43:39;6.68;;;2.53;;
75488;SDS011;64069;46.396;48.102;2024-03-08T08:46:05;15.52;;;5.15;;
75488;SDS011;64069;46.396;48.102;2024-03-08T08:48:31;5.65;;;2.50;;
75488;SDS011;64069;46.396;48.102;2024-03-08T08:50:57;4.15;;;2.08;;
75488;SDS011;64069;46.396;48.102;2024-03-08T08:53:23;6.13;;;2.50;;
75488;SDS011;64069;46.396;48.102;2024-03-08T08:55:49;6.32;;;2.40;;
75488;SDS011;64069;46.396;48.102;2024-03-08T08:58:15;6.05;;;2.00;;
75488;SDS011;64069;46.396;48.102;2024-03-08T09:00:41;6.40;;;2.05;;
75488;SDS011;64069;46.396;48.102;2024-03-08T09:03:09;7.57;;;2.35;;
75488;SDS011;64069;46.396;48.102;2024-03-08T09:05:37;4.35;;;2.00;;
75488;SDS011;64069;46.396;48.102;2024-03-08T09:08:03;5.97;;;2.17;;
75488;SDS011;64069;46.396;48.102;2024-03-08T09:10:29;4.75;;;1.67;;
75488;SDS011;64069;46.396;48.102;2024-03-08T09:12:55;5.15;;;2.28;;
75488;SDS011;64069;46.396;48.102;2024-03-08T09:15:21;6.90;;;2.40;;
75488;SDS011;64069;46.396;48.102;2024-03-08T09:17:47;5.20;;;2.22;;
75488;SDS011;64069;46.396;48.102;2024-03-08T09:20:13;8.85;;;2.60;;
75488;SDS011;64069;46.396;48.102;2024-03-08T09:22:40;8.38;;;2.80;;
75488;SDS011;64069;46.396;48.102;2024-03-08T09:25:10;5.72;;;1.55;;
75488;SDS011;64069;46.396;48.102;2024-03-08T09:27:36;5.30;;;1.90;;
75488;SDS011;64069;46.396;48.102;2024-03-08T09:30:02;5.95;;;2.20;;
75488;SDS011;64069;46.396;48.102;2024-03-08T09:32:29;4.82;;;1.55;;
75488;SDS011;64069;46.396;48.102;2024-03-08T09:34:57;7.20;;;2.35;;
75488;SDS011;64069;46.396;48.102;2024-03-08T09:37:22;4.72;;;1.92;;
75488;SDS011;64069;46.396;48.102;2024-03-08T09:39:48;6.93;;;2.05;;
75488;SDS011;64069;46.396;48.102;2024-03-08T09:42:15;5.82;;;2.15;;
75488;SDS011;64069;46.396;48.102;2024-03-08T09:44:47;6.90;;;2.45;;
75488;SDS011;64069;46.396;48.102;2024-03-08T09:47:13;4.30;;;1.67;;
75488;SDS011;64069;46.396;48.102;2024-03-08T09:49:40;5.13;;;2.33;;
75488;SDS011;64069;46.396;48.102;2024-03-08T09:52:10;5.05;;;2.00;;
75488;SDS011;64069;46.396;48.102;2024-03-08T09:54:37;5.63;;;2.15;;
75488;SDS011;64069;46.396;48.102;2024-03-08T09:57:04;5.30;;;2.20;;
75488;SDS011;64069;46.396;48.102;2024-03-08T09:59:34;6.00;;;2.00;;
75488;SDS011;64069;46.396;48.102;2024-03-08T10:02:02;3.13;;;1.50;;
75488;SDS011;64069;46.396;48.102;2024-03-08T10:04:29;4.00;;;2.45;;
75488;SDS011;64069;46.396;48.102;2024-03-08T10:07:00;4.15;;;1.85;;
75488;SDS011;64069;46.396;48.102;2024-03-08T10:09:26;7.47;;;2.40;;
75488;SDS011;64069;46.396;48.102;2024-03-08T10:11:55;4.97;;;2.33;;
75488;SDS011;64069;46.396;48.102;2024-03-08T10:14:23;5.38;;;2.50;;
75488;SDS011;64069;46.396;48.102;2024-03-08T10:16:52;4.80;;;2.60;;
75488;SDS011;64069;46.396;48.102;2024-03-08T10:19:18;6.50;;;2.90;;
75488;SDS011;64069;46.396;48.102;2024-03-08T10:21:48;6.72;;;2.95;;
75488;SDS011;64069;46.396;48.102;2024-03-08T10:24:19;5.10;;;2.70;;
75488;SDS011;64069;46.396;48.102;2024-03-08T10:26:45;6.88;;;3.60;;
75488;SDS011;64069;46.396;48.102;2024-03-08T10:29:12;11.40;;;3.60;;
75488;SDS011;64069;46.396;48.102;2024-03-08T10:31:44;7.70;;;3.30;;
75488;SDS011;64069;46.396;48.102;2024-03-08T10:34:12;9.85;;;3.40;;
75488;SDS011;64069;46.396;48.102;2024-03-08T10:36:39;8.55;;;3.38;;
75488;SDS011;64069;46.396;48.102;2024-03-08T10:39:21;6.85;;;3.13;;
75488;SDS011;64069;46.396;48.102;2024-03-08T10:41:58;7.97;;;3.60;;
75488;SDS011;64069;46.396;48.102;2024-03-08T10:44:32;13.65;;;4.95;;
75488;SDS011;64069;46.396;48.102;2024-03-08T10:47:18;8.63;;;3.38;;
75488;SDS011;64069;46.396;48.102;2024-03-08T10:50:05;7.20;;;3.25;;
75488;SDS011;64069;46.396;48.102;2024-03-08T10:52:34;11.13;;;4.68;;
75488;SDS011;64069;46.396;48.102;2024-03-08T10:55:02;9.77;;;4.85;;
75488;SDS011;64069;46.396;48.102;2024-03-08T10:57:29;8.40;;;3.30;;
75488;SDS011;64069;46.396;48.102;2024-03-08T10:59:55;8.07;;;2.88;;
75488;SDS011;64069;46.396;48.102;2024-03-08T11:02:24;7.78;;;3.10;;
75488;SDS011;64069;46.396;48.102;2024-03-08T11:04:52;8.45;;;3.92;;
75488;SDS011;64069;46.396;48.102;2024-03-08T11:07:23;8.25;;;2.97;;
75488;SDS011;64069;46.396;48.102;2024-03-08T11:09:52;6.75;;;2.88;;
75488;SDS011;64069;46.396;48.102;2024-03-08T11:12:25;7.32;;;3.08;;
75488;SDS011;64069;46.396;48.102;2024-03-08T11:14:55;10.65;;;3.78;;
75488;SDS011;64069;46.396;48.102;2024-03-08T11:20:15;7.47;;;2.42;;
75488;SDS011;64069;46.396;48.102;2024-03-08T11:22:53;5.90;;;2.60;;
75488;SDS011;64069;46.396;48.102;2024-03-08T11:25:33;9.75;;;4.65;;
75488;SDS011;64069;46.396;48.102;2024-03-08T11:28:20;9.23;;;3.95;;
75488;SDS011;64069;46.396;48.102;2024-03-08T11:33:24;5.93;;;2.72;;
75488;SDS011;64069;46.396;48.102;2024-03-08T11:36:11;8.07;;;2.85;;
75488;SDS011;64069;46.396;48.102;2024-03-08T11:38:42;5.82;;;2.40;;
75488;SDS011;64069;46.396;48.102;2024-03-08T11:41:09;5.43;;;2.20;;
75488;SDS011;64069;46.396;48.102;2024-03-08T11:43:40;6.00;;;2.67;;
75488;SDS011;64069;46.396;48.102;2024-03-08T11:46:10;9.27;;;2.08;;
75488;SDS011;64069;46.396;48.102;2024-03-08T11:48:39;6.00;;;1.90;;
75488;SDS011;64069;46.396;48.102;2024-03-08T11:51:12;7.78;;;2.85;;
75488;SDS011;64069;46.396;48.102;2024-03-08T11:53:40;4.47;;;1.95;;
75488;SDS011;64069;46.396;48.102;2024-03-08T11:56:14;6.15;;;1.95;;
75488;SDS011;64069;46.396;48.102;2024-03-08T11:58:41;8.57;;;2.53;;
75488;SDS011;64069;46.396;48.102;2024-03-08T12:01:17;5.63;;;2.55;;
75488;SDS011;64069;46.396;48.102;2024-03-08T12:03:43;3.75;;;1.67;;
75488;SDS011;64069;46.396;48.102;2024-03-08T12:06:12;4.80;;;2.00;;
75488;SDS011;64069;46.396;48.102;2024-03-08T12:08:41;4.82;;;2.05;;
75488;SDS011;64069;46.396;48.102;2024-03-08T12:11:07;6.50;;;2.45;;
75488;SDS011;64069;46.396;48.102;2024-03-08T12:13:35;6.25;;;2.15;;
75488;SDS011;64069;46.396;48.102;2024-03-08T12:16:04;4.47;;;2.25;;
75488;SDS011;64069;46.396;48.102;2024-03-08T12:18:34;5.97;;;1.88;;
75488;SDS011;64069;46.396;48.102;2024-03-08T12:21:07;6.00;;;2.10;;
75488;SDS011;64069;46.396;48.102;2024-03-08T12:23:37;6.17;;;2.60;;
75488;SDS011;64069;46.396;48.102;2024-03-08T12:28:44;4.00;;;1.65;;
75488;SDS011;64069;46.396;48.102;2024-03-08T12:31:14;4.30;;;1.90;;
75488;SDS011;64069;46.396;48.102;2024-03-08T12:33:52;9.23;;;2.50;;
75488;SDS011;64069;46.396;48.102;2024-03-08T12:36:19;12.00;;;3.13;;
75488;SDS011;64069;46.396;48.102;2024-03-08T12:38:46;8.75;;;2.53;;
75488;SDS011;64069;46.396;48.102;2024-03-08T12:41:16;8.15;;;3.03;;
75488;SDS011;64069;46.396;48.102;2024-03-08T12:43:44;5.50;;;2.47;;
75488;SDS011;64069;46.396;48.102;2024-03-08T12:46:17;5.38;;;2.15;;
75488;SDS011;64069;46.396;48.102;2024-03-08T12:48:47;4.95;;;2.10;;
75488;SDS011;64069;46.396;48.102;2024-03-08T12:51:14;4.22;;;1.80;;
75488;SDS011;64069;46.396;48.102;2024-03-08T12:53:44;8.52;;;2.83;;
75488;SDS011;64069;46.396;48.102;2024-03-08T12:56:11;8.15;;;3.60;;
75488;SDS011;64069;46.396;48.102;2024-03-08T12:58:38;6.32;;;2.75;;
75488;SDS011;64069;46.396;48.102;2024-03-08T13:01:04;5.32;;;1.90;;
75488;SDS011;64069;46.396;48.102;2024-03-08T13:03:33;6.80;;;2.10;;
75488;SDS011;64069;46.396;48.102;2024-03-08T13:06:07;6.18;;;2.03;;
75488;SDS011;64069;46.396;48.102;2024-03-08T13:08:36;7.70;;;2.42;;
75488;SDS011;64069;46.396;48.102;2024-03-08T13:11:06;4.88;;;2.13;;
75488;SDS011;64069;46.396;48.102;2024-03-08T13:13:35;9.48;;;2.55;;
75488;SDS011;64069;46.396;48.102;2024-03-08T13:16:02;5.85;;;2.25;;
75488;SDS011;64069;46.396;48.102;2024-03-08T13:18:29;9.93;;;3.05;;
75488;SDS011;64069;46.396;48.102;2024-03-08T13:20:55;10.10;;;1.83;;
75488;SDS011;64069;46.396;48.102;2024-03-08T13:23:22;8.90;;;3.13;;
75488;SDS011;64069;46.396;48.102;2024-03-08T13:25:48;6.63;;;2.20;;
75488;SDS011;64069;46.396;48.102;2024-03-08T13:28:15;3.53;;;1.50;;
75488;SDS011;64069;46.396;48.102;2024-03-08T13:30:42;3.75;;;1.67;;
75488;SDS011;64069;46.396;48.102;2024-03-08T13:33:09;4.20;;;1.75;;
75488;SDS011;64069;46.396;48.102;2024-03-08T13:35:35;11.45;;;2.42;;
75488;SDS011;64069;46.396;48.102;2024-03-08T13:38:02;9.55;;;2.67;;
75488;SDS011;64069;46.396;48.102;2024-03-08T13:40:29;3.85;;;1.55;;
75488;SDS011;64069;46.396;48.102;2024-03-08T13:42:56;8.85;;;3.17;;
75488;SDS011;64069;46.396;48.102;2024-03-08T13:45:22;6.10;;;1.90;;
75488;SDS011;64069;46.396;48.102;2024-03-08T13:47:53;5.28;;;1.80;;
75488;SDS011;64069;46.396;48.102;2024-03-08T13:50:19;4.28;;;1.98;;
75488;SDS011;64069;46.396;48.102;2024-03-08T13:52:49;6.70;;;2.63;;
75488;SDS011;64069;46.396;48.102;2024-03-08T13:55:20;8.65;;;2.42;;
75488;SDS011;64069;46.396;48.102;2024-03-08T13:57:48;11.80;;;3.08;;
75488;SDS011;64069;46.396;48.102;2024-03-08T14:00:16;15.18;;;2.20;;
75488;SDS011;64069;46.396;48.102;2024-03-08T14:02:42;14.35;;;2.75;;
75488;SDS011;64069;46.396;48.102;2024-03-08T14:05:10;4.40;;;2.00;;
75488;SDS011;64069;46.396;48.102;2024-03-08T14:07:37;10.95;;;3.15;;
75488;SDS011;64069;46.396;48.102;2024-03-08T14:10:03;8.13;;;2.72;;
75488;SDS011;64069;46.396;48.102;2024-03-08T14:12:32;16.80;;;3.38;;
75488;SDS011;64069;46.396;48.102;2024-03-08T14:14:58;11.00;;;3.35;;
75488;SDS011;64069;46.396;48.102;2024-03-08T14:17:25;4.15;;;2.28;;
75488;SDS011;64069;46.396;48.102;2024-03-08T14:19:52;8.82;;;2.90;;
75488;SDS011;64069;46.396;48.102;2024-03-08T14:22:21;9.80;;;3.13;;
75488;SDS011;64069;46.396;48.102;2024-03-08T14:24:48;13.88;;;3.05;;
75488;SDS011;64069;46.396;48.102;2024-03-08T14:27:15;16.85;;;3.15;;
75488;SDS011;64069;46.396;48.102;2024-03-08T14:29:44;7.50;;;2.40;;
75488;SDS011;64069;46.396;48.102;2024-03-08T14:32:11;23.65;;;4.20;;
75488;SDS011;64069;46.396;48.102;2024-03-08T14:34:38;8.15;;;3.10;;
75488;SDS011;64069;46.396;48.102;2024-03-08T14:37:04;6.28;;;2.38;;